Time;durP1;ratioP1;P1;durP2;ratioP2;P2;SDS_P1;SDS_P2;PMS_P1;PMS_P2;Temp;Humidity;BMP_temperature;BMP_pressure;BME280_temperature;BME280_humidity;BME280_pressure;Samples;Min_cycle;Max_cycle;Signal;HPM_P1;HPM_P2
2022/07/19 00:01:59;;;;;;;;;;;20.80;71.50;;;;;;4984288;28;20030;-72
2022/07/19 00:04:25;;;;;;;4.85;2.33;;;20.80;70.50;;;;;;4984354;28;19906;-72
2022/07/19 00:06:50;;;;;;;3.73;2.80;;;20.80;70.60;;;;;;4967733;28;20030;-72
2022/07/19 00:09:16;;;;;;;2.77;1.93;;;20.70;70.10;;;;;;4983691;28;20065;-72
2022/07/19 00:11:42;;;;;;;4.77;2.37;;;20.60;70.10;;;;;;4983772;28;20088;-72
2022/07/19 00:14:08;;;;;;;4.50;2.57;;;20.50;70.10;;;;;;4983245;28;20018;-72
2022/07/19 00:16:34;;;;;;;3.53;2.58;;;20.40;70.70;;;;;;4984807;28;20266;-72
2022/07/19 00:18:59;;;;;;;4.87;2.17;;;20.30;70.20;;;;;;4984442;28;20031;-72
2022/07/19 00:21:25;;;;;;;3.60;1.90;;;20.30;71.40;;;;;;4983563;28;20037;-72
2022/07/19 00:23:51;;;;;;;3.97;2.93;;;20.30;71.70;;;;;;4984192;28;20038;-72
2022/07/19 00:26:17;;;;;;;4.67;2.47;;;20.30;71.40;;;;;;4984568;28;20227;-72
2022/07/19 00:28:42;;;;;;;2.47;2.10;;;20.30;71.60;;;;;;4984447;28;20349;-72
2022/07/19 00:31:08;;;;;;;6.33;1.93;;;20.30;71.00;;;;;;4984545;28;20027;-72
2022/07/19 00:33:35;;;;;;;13.30;2.67;;;20.30;72.00;;;;;;4983437;28;20018;-72
2022/07/19 00:36:00;;;;;;;7.93;2.42;;;20.20;71.70;;;;;;4983201;28;20019;-71
2022/07/19 00:38:26;;;;;;;3.93;2.33;;;20.20;72.30;;;;;;4984396;28;20347;-71
2022/07/19 00:40:52;;;;;;;4.78;2.40;;;20.20;72.40;;;;;;4984280;28;20329;-71
2022/07/19 00:43:18;;;;;;;3.83;2.10;;;20.10;72.20;;;;;;4983938;28;20341;-71
2022/07/19 00:45:43;;;;;;;4.33;2.83;;;20.10;72.40;;;;;;4984200;28;20030;-71
2022/07/19 00:48:09;;;;;;;6.43;2.80;;;20.00;72.40;;;;;;4983906;28;20034;-71
2022/07/19 00:50:35;;;;;;;8.10;2.63;;;20.00;73.30;;;;;;4984251;28;20427;-71
2022/07/19 00:53:02;;;;;;;3.80;2.17;;;20.00;72.70;;;;;;4982737;28;20318;-71
2022/07/19 00:55:32;;;;;;;2.95;2.25;;;19.90;72.30;;;;;;4983985;28;20022;-72
2022/07/19 00:57:59;;;;;;;4.03;2.28;;;19.90;73.00;;;;;;4984123;28;20026;-72
2022/07/19 01:00:26;;;;;;;;;;;19.80;72.70;;;;;;4983348;28;20019;-72
2022/07/19 01:02:52;;;;;;;6.70;2.60;;;19.80;72.90;;;;;;4983500;28;19906;-71
2022/07/19 01:05:17;;;;;;;6.63;2.50;;;19.80;73.70;;;;;;4982849;28;20023;-72
2022/07/19 01:07:43;;;;;;;3.87;2.30;;;19.70;73.50;;;;;;4983877;28;20084;-72
2022/07/19 01:10:10;;;;;;;5.28;2.33;;;19.70;73.40;;;;;;4982726;28;20027;-72
2022/07/19 01:12:36;;;;;;;3.85;2.67;;;19.60;73.60;;;;;;4982689;28;20050;-72
2022/07/19 01:15:12;;;;;;;4.72;2.42;;;19.60;73.50;;;;;;4982677;28;20030;-72
2022/07/19 01:17:37;;;;;;;3.42;2.55;;;19.50;74.10;;;;;;4982974;28;20023;-72
2022/07/19 01:20:04;;;;;;;6.57;2.60;;;19.50;73.70;;;;;;4982458;28;20270;-72
2022/07/19 01:22:30;;;;;;;2.63;2.35;;;19.40;73.90;;;;;;4983643;28;20037;-72
2022/07/19 01:24:56;;;;;;;4.07;2.33;;;19.40;73.80;;;;;;4983409;28;20230;-74
2022/07/19 01:27:21;;;;;;;2.40;2.20;;;19.40;74.80;;;;;;4982087;28;20215;-73
2022/07/19 01:29:47;;;;;;;3.77;2.77;;;19.40;75.30;;;;;;4966588;28;20045;-73
2022/07/19 01:32:13;;;;;;;6.40;3.27;;;19.30;74.10;;;;;;4982625;28;20097;-74
2022/07/19 01:34:39;;;;;;;4.97;2.60;;;19.30;74.00;;;;;;4981334;28;20023;-73
2022/07/19 01:37:04;;;;;;;5.40;2.60;;;19.30;74.30;;;;;;4982433;28;20322;-74
2022/07/19 01:39:30;;;;;;;2.53;2.30;;;19.20;73.80;;;;;;4981714;28;20345;-73
2022/07/19 01:41:56;;;;;;;5.10;2.97;;;19.10;73.90;;;;;;4983624;28;20129;-73
2022/07/19 01:44:21;;;;;;;4.07;2.23;;;19.00;74.00;;;;;;4982094;28;20337;-73
2022/07/19 01:46:47;;;;;;;3.90;2.93;;;19.00;74.20;;;;;;4982515;28;20084;-73
2022/07/19 01:49:13;;;;;;;3.27;2.13;;;19.00;74.40;;;;;;4982426;28;20329;-73
2022/07/19 01:51:39;;;;;;;3.97;2.47;;;18.90;74.40;;;;;;4983488;28;20022;-74
2022/07/19 01:54:04;;;;;;;3.97;2.67;;;18.90;74.60;;;;;;4983275;28;20018;-74
2022/07/19 01:56:30;;;;;;;3.90;2.50;;;18.80;74.30;;;;;;4983430;28;20023;-73
2022/07/19 01:58:56;;;;;;;2.30;2.10;;;18.80;74.70;;;;;;4982538;28;20030;-73
2022/07/19 02:01:21;;;;;;;3.40;2.47;;;18.80;75.50;;;;;;4982542;28;20030;-73
2022/07/19 02:03:47;;;;;;;4.47;2.43;;;18.80;74.70;;;;;;4982166;28;20033;-74
2022/07/19 02:06:13;;;;;;;5.23;2.50;;;18.70;74.90;;;;;;4981799;28;20029;-74
2022/07/19 02:08:40;;;;;;;4.70;2.23;;;18.60;74.90;;;;;;4983389;28;20034;-73
2022/07/19 02:13:50;;;;;;;5.65;2.65;;;18.60;75.80;;;;;;4983112;28;20080;-73
2022/07/19 02:16:16;;;;;;;3.57;2.53;;;18.60;75.80;;;;;;4982476;28;20046;-73
2022/07/19 02:18:42;;;;;;;6.20;2.90;;;18.70;76.10;;;;;;4982386;28;20082;-73
2022/07/19 02:21:07;;;;;;;2.67;2.37;;;18.70;75.70;;;;;;4982472;28;20023;-74
2022/07/19 02:23:33;;;;;;;2.83;2.43;;;18.60;75.80;;;;;;4983225;28;20030;-73
2022/07/19 02:25:59;;;;;;;3.40;2.53;;;18.70;76.00;;;;;;4982294;28;20035;-73
2022/07/19 02:28:24;;;;;;;3.37;2.20;;;18.70;75.70;;;;;;4983497;28;20093;-74
2022/07/19 02:30:50;;;;;;;2.57;2.07;;;18.60;75.60;;;;;;4982488;28;20325;-73
2022/07/19 02:33:16;;;;;;;2.50;2.30;;;18.60;75.70;;;;;;4982308;28;20030;-74
2022/07/19 02:35:42;;;;;;;3.80;2.90;;;18.60;76.00;;;;;;4982017;28;20042;-74
2022/07/19 02:38:07;;;;;;;4.57;2.57;;;18.60;75.80;;;;;;4982419;28;20026;-73
2022/07/19 02:40:33;;;;;;;3.40;2.33;;;18.60;75.30;;;;;;4984999;28;20026;-73
2022/07/19 02:42:59;;;;;;;6.37;2.73;;;18.50;74.90;;;;;;4985476;28;20027;-74
2022/07/19 02:45:24;;;;;;;4.57;2.80;;;18.50;75.20;;;;;;5011085;23;20090;-74
2022/07/19 02:47:50;;;;;;;3.30;2.27;;;18.50;75.90;;;;;;4992194;28;20344;-75
2022/07/19 02:50:16;;;;;;;6.10;2.83;;;18.50;75.60;;;;;;4983872;28;20086;-76
2022/07/19 02:52:42;;;;;;;5.00;2.80;;;18.50;76.20;;;;;;4983879;28;20038;-76
2022/07/19 02:55:08;;;;;;;2.70;2.43;;;18.50;76.20;;;;;;4983786;28;20026;-76
2022/07/19 02:57:34;;;;;;;4.15;2.53;;;18.40;76.10;;;;;;4983927;28;20344;-75
2022/07/19 03:00:00;;;;;;;2.67;2.40;;;18.40;76.30;;;;;;4984844;28;20050;-76
2022/07/19 03:02:25;;;;;;;5.43;2.70;;;18.40;76.30;;;;;;4984995;28;20178;-76
2022/07/19 03:04:51;;;;;;;3.17;2.63;;;18.40;76.80;;;;;;4983305;28;20372;-76
2022/07/19 03:07:17;;;;;;;3.57;2.40;;;18.30;77.60;;;;;;4983830;28;20022;-76
2022/07/19 03:09:43;;;;;;;6.37;3.17;;;18.30;78.70;;;;;;4983582;28;20022;-76
2022/07/19 03:12:08;;;;;;;4.30;2.53;;;18.30;80.00;;;;;;4983585;28;20069;-75
2022/07/19 03:14:34;;;;;;;3.37;2.67;;;18.30;81.10;;;;;;4985997;28;20022;-76
2022/07/19 03:17:00;;;;;;;3.73;2.67;;;18.20;81.40;;;;;;5003071;28;20018;-76
2022/07/19 03:19:26;;;;;;;4.23;2.93;;;18.20;82.90;;;;;;5004077;28;20277;-76
2022/07/19 03:21:55;;;;;;;7.15;2.50;;;18.20;82.60;;;;;;5002996;28;20093;-75
2022/07/19 03:24:21;;;;;;;5.90;2.75;;;18.20;83.50;;;;;;5002368;28;20092;-76
2022/07/19 03:26:46;;;;;;;4.00;2.73;;;18.20;84.30;;;;;;5002911;28;20034;-76
2022/07/19 03:29:12;;;;;;;8.27;3.87;;;18.10;84.60;;;;;;5002772;28;20072;-76
2022/07/19 03:31:38;;;;;;;5.30;3.50;;;18.10;85.50;;;;;;5002527;28;20022;-76
2022/07/19 03:34:04;;;;;;;5.50;2.77;;;18.10;86.10;;;;;;5002336;28;20026;-76
2022/07/19 03:36:29;;;;;;;5.40;3.07;;;18.10;86.20;;;;;;5002678;28;20112;-76
2022/07/19 03:38:56;;;;;;;4.60;3.20;;;18.10;86.60;;;;;;5002671;28;20022;-76
2022/07/19 03:41:22;;;;;;;4.10;2.38;;;18.10;86.90;;;;;;5002636;28;20115;-76
2022/07/19 03:43:47;;;;;;;11.73;2.90;;;18.10;87.50;;;;;;5002140;28;20030;-76
2022/07/19 03:46:13;;;;;;;6.90;3.17;;;18.10;87.20;;;;;;4986009;28;20033;-76
2022/07/19 03:48:39;;;;;;;5.77;2.80;;;18.00;87.30;;;;;;5002428;28;20045;-77
2022/07/19 03:51:05;;;;;;;3.93;2.83;;;18.00;86.80;;;;;;5001952;28;20029;-76
2022/07/19 03:53:30;;;;;;;8.03;2.60;;;18.00;86.80;;;;;;5002184;28;20026;-75
2022/07/19 03:55:56;;;;;;;3.73;2.47;;;17.90;86.50;;;;;;5002356;28;20029;-75
2022/07/19 03:58:22;;;;;;;4.67;2.53;;;17.90;86.90;;;;;;5002309;28;20056;-75
2022/07/19 04:00:48;;;;;;;4.27;3.10;;;17.90;87.40;;;;;;5001437;28;20301;-75
2022/07/19 04:03:14;;;;;;;9.13;3.37;;;17.90;87.10;;;;;;4985602;28;20026;-75
2022/07/19 04:05:39;;;;;;;5.93;3.43;;;17.90;85.80;;;;;;5002107;28;20026;-75
2022/07/19 04:08:05;;;;;;;7.07;3.50;;;17.90;85.00;;;;;;5002095;28;20026;-75
2022/07/19 04:10:31;;;;;;;8.77;3.53;;;17.90;84.80;;;;;;5002112;28;20049;-75
2022/07/19 04:12:57;;;;;;;8.60;4.00;;;17.90;85.80;;;;;;5002933;28;20085;-75
2022/07/19 04:15:22;;;;;;;7.33;3.23;;;17.90;84.60;;;;;;4985112;28;20030;-75
2022/07/19 04:17:48;;;;;;;4.63;3.27;;;17.90;84.40;;;;;;5001563;28;20026;-75
2022/07/19 04:20:14;;;;;;;4.60;3.07;;;17.90;84.80;;;;;;5001856;28;20030;-75
2022/07/19 04:22:39;;;;;;;6.70;3.87;;;17.90;84.40;;;;;;5001692;28;20101;-75
2022/07/19 04:25:06;;;;;;;4.67;3.73;;;17.90;83.90;;;;;;4985474;28;20029;-75
2022/07/19 04:27:32;;;;;;;8.88;3.47;;;17.90;83.10;;;;;;4985650;28;20026;-75
2022/07/19 04:29:58;;;;;;;7.50;3.80;;;17.90;83.60;;;;;;5001268;28;20030;-75
2022/07/19 04:32:23;;;;;;;7.30;3.13;;;17.80;84.00;;;;;;4985460;28;20018;-75
2022/07/19 04:34:49;;;;;;;7.17;3.93;;;17.90;84.00;;;;;;5001299;28;20026;-75
2022/07/19 04:37:15;;;;;;;8.37;3.57;;;17.90;84.10;;;;;;4985389;28;20018;-75
2022/07/19 04:39:41;;;;;;;8.17;3.40;;;17.90;83.10;;;;;;5001475;28;20328;-75
2022/07/19 04:42:07;;;;;;;8.43;4.07;;;17.90;83.40;;;;;;5000978;28;20022;-75
2022/07/19 04:44:33;;;;;;;6.80;3.43;;;17.90;85.00;;;;;;5001965;28;20041;-75
2022/07/19 04:46:58;;;;;;;5.87;3.67;;;17.90;84.10;;;;;;5001444;28;20085;-75
2022/07/19 04:49:24;;;;;;;6.03;3.20;;;18.00;85.10;;;;;;5000420;28;20022;-75
2022/07/19 04:51:50;;;;;;;8.20;3.50;;;18.10;87.30;;;;;;5001466;28;20025;-75
2022/07/19 04:54:16;;;;;;;6.53;4.13;;;18.10;87.80;;;;;;5001132;28;20337;-75
2022/07/19 04:56:42;;;;;;;8.40;3.60;;;18.20;87.80;;;;;;4985100;28;20187;-71
2022/07/19 04:59:08;;;;;;;7.15;3.47;;;18.20;88.90;;;;;;5001347;28;20144;-72
2022/07/19 05:01:34;;;;;;;8.17;3.20;;;18.20;88.50;;;;;;5000502;28;20122;-71
2022/07/19 05:04:00;;;;;;;6.85;3.67;;;18.30;86.30;;;;;;5000180;28;20110;-71
2022/07/19 05:06:25;;;;;;;8.37;3.57;;;18.40;84.60;;;;;;5002150;28;20041;-71
2022/07/19 05:08:56;;;;;;;8.70;3.33;;;18.40;85.50;;;;;;5002279;28;20022;-72
2022/07/19 05:11:22;;;;;;;7.28;3.38;;;18.40;87.70;;;;;;5000762;28;20026;-72
2022/07/19 05:13:48;;;;;;;8.77;4.07;;;18.50;88.80;;;;;;5000702;28;20364;-71
2022/07/19 05:16:14;;;;;;;6.25;3.47;;;18.60;87.90;;;;;;5000494;28;20293;-71
2022/07/19 05:18:39;;;;;;;6.93;3.73;;;18.60;84.50;;;;;;5001078;28;20093;-71
2022/07/19 05:21:05;;;;;;;9.10;4.27;;;18.70;84.80;;;;;;5001825;28;20030;-71
2022/07/19 05:23:31;;;;;;;6.77;4.23;;;18.70;85.10;;;;;;5000592;28;20034;-71
2022/07/19 05:25:57;;;;;;;6.82;3.78;;;18.80;89.20;;;;;;5000767;28;20102;-71
2022/07/19 05:28:23;;;;;;;6.23;3.40;;;18.90;91.30;;;;;;5000686;28;20105;-72
2022/07/19 05:30:49;;;;;;;9.43;4.73;;;19.00;92.20;;;;;;5001374;28;20222;-72
2022/07/19 05:33:16;;;;;;;8.37;3.90;;;19.00;91.40;;;;;;5001723;28;20286;-72
2022/07/19 05:35:42;;;;;;;7.35;3.60;;;19.10;89.90;;;;;;5000571;28;20110;-72
2022/07/19 05:38:07;;;;;;;7.90;3.95;;;19.10;87.80;;;;;;5000842;28;20022;-72
2022/07/19 05:40:33;;;;;;;7.17;3.93;;;19.20;87.40;;;;;;5000746;28;20045;-72
2022/07/19 05:43:00;;;;;;;4.73;3.60;;;19.30;86.50;;;;;;5000634;28;20024;-72
2022/07/19 05:45:27;;;;;;;7.57;4.50;;;19.30;85.60;;;;;;5001507;28;20050;-72
2022/07/19 05:47:53;;;;;;;6.33;3.97;;;19.40;88.80;;;;;;5000346;28;20061;-72
2022/07/19 05:50:18;;;;;;;10.53;4.00;;;19.40;89.60;;;;;;4999606;28;20045;-72
2022/07/19 05:52:44;;;;;;;8.73;4.00;;;19.50;90.00;;;;;;5001471;28;20019;-71
2022/07/19 05:55:10;;;;;;;6.80;3.73;;;19.60;90.40;;;;;;5001641;28;20022;-72
2022/07/19 05:57:36;;;;;;;5.80;3.40;;;19.60;88.20;;;;;;5001984;28;20018;-73
2022/07/19 06:00:03;;;;;;;4.60;3.47;;;19.70;90.50;;;;;;5001776;28;20022;-72
2022/07/19 06:02:29;;;;;;;8.68;3.45;;;19.70;91.20;;;;;;4983678;28;20022;-71
2022/07/19 06:04:55;;;;;;;9.57;3.93;;;19.80;90.50;;;;;;5000022;28;20037;-71
2022/07/19 06:07:20;;;;;;;7.87;3.80;;;19.90;85.90;;;;;;5000585;28;20038;-72
2022/07/19 06:09:46;;;;;;;9.20;3.67;;;19.90;86.60;;;;;;5001508;28;20022;-70
2022/07/19 06:12:12;;;;;;;9.93;4.23;;;20.00;88.00;;;;;;5001418;28;20026;-69
2022/07/19 06:14:37;;;;;;;6.83;3.83;;;20.10;88.00;;;;;;5004779;28;20032;-69
2022/07/19 06:17:03;;;;;;;13.10;4.30;;;20.10;86.30;;;;;;5005333;28;20022;-69
2022/07/19 06:19:29;;;;;;;6.47;3.73;;;20.20;86.30;;;;;;5004924;28;20102;-69
2022/07/19 06:21:55;;;;;;;10.83;4.37;;;20.30;86.40;;;;;;5003915;28;20030;-69
2022/07/19 06:24:20;;;;;;;10.80;3.70;;;20.30;85.60;;;;;;5004790;28;20045;-69
2022/07/19 06:26:46;;;;;;;5.70;3.30;;;20.50;84.80;;;;;;5005087;28;20041;-69
2022/07/19 06:29:12;;;;;;;4.60;3.27;;;20.70;83.80;;;;;;5005048;28;20053;-67
2022/07/19 06:31:37;;;;;;;6.83;3.80;;;20.90;83.30;;;;;;5005068;28;20034;-69
2022/07/19 06:34:03;;;;;;;5.90;3.73;;;21.10;82.30;;;;;;5004576;28;20022;-69
2022/07/19 06:36:29;;;;;;;7.73;3.60;;;21.10;82.20;;;;;;5004707;28;20080;-69
2022/07/19 06:38:55;;;;;;;10.82;3.70;;;21.20;80.90;;;;;;5004889;28;20169;-70
2022/07/19 06:41:21;;;;;;;7.67;3.93;;;21.20;80.30;;;;;;5004881;28;20057;-69
2022/07/19 06:43:46;;;;;;;5.23;3.50;;;21.30;81.40;;;;;;5002375;28;20133;-69
2022/07/19 06:46:12;;;;;;;8.13;3.50;;;21.30;80.00;;;;;;5004697;28;20228;-69
2022/07/19 06:48:38;;;;;;;6.50;3.45;;;21.40;78.40;;;;;;5004758;28;20182;-69
2022/07/19 06:51:06;;;;;;;9.63;3.47;;;21.40;78.70;;;;;;5003363;28;20214;-69
2022/07/19 06:53:31;;;;;;;9.68;3.55;;;21.50;76.70;;;;;;5002217;28;20278;-69
2022/07/19 06:55:57;;;;;;;7.60;3.30;;;21.60;76.30;;;;;;5004372;28;20018;-69
2022/07/19 06:58:23;;;;;;;7.73;3.97;;;21.70;76.80;;;;;;5004538;28;20022;-69
2022/07/19 07:00:49;;;;;;;9.07;3.57;;;21.80;77.10;;;;;;5004507;28;20029;-69
2022/07/19 07:03:17;;;;;;;5.43;3.50;;;21.90;77.70;;;;;;5003628;28;20193;-69
2022/07/19 07:05:43;;;;;;;5.20;3.00;;;21.90;76.60;;;;;;5003239;28;20234;-69
2022/07/19 07:08:08;;;;;;;5.40;3.00;;;22.00;76.30;;;;;;5004241;28;20105;-69
2022/07/19 07:10:34;;;;;;;7.30;3.37;;;22.10;77.20;;;;;;5004276;28;20056;-69
2022/07/19 07:13:00;;;;;;;9.07;3.08;;;22.20;76.10;;;;;;5003977;28;20106;-69
2022/07/19 07:15:26;;;;;;;7.13;4.10;;;22.30;71.40;;;;;;5004218;28;20101;-69
2022/07/19 07:17:51;;;;;;;3.30;2.10;;;22.50;65.40;;;;;;5004213;28;20030;-70
2022/07/19 07:20:17;;;;;;;5.83;2.47;;;22.70;63.50;;;;;;5004246;28;20030;-69
2022/07/19 07:22:43;;;;;;;3.23;1.97;;;22.90;63.00;;;;;;5003430;28;20029;-70
2022/07/19 07:25:09;;;;;;;3.40;1.83;;;23.10;62.50;;;;;;5002384;28;20021;-70
2022/07/19 07:27:35;;;;;;;2.40;1.97;;;23.30;60.00;;;;;;5002830;28;20058;-69
2022/07/19 07:30:01;;;;;;;3.60;1.90;;;23.40;59.70;;;;;;5003954;28;20022;-69
2022/07/19 07:32:26;;;;;;;3.27;2.00;;;23.50;60.10;;;;;;5003941;28;20049;-69
2022/07/19 07:34:53;;;;;;;3.53;2.23;;;23.70;58.70;;;;;;5003157;28;20029;-69
2022/07/19 07:37:19;;;;;;;3.88;2.70;;;23.90;58.60;;;;;;5003673;28;20288;-69
2022/07/19 07:39:45;;;;;;;2.37;1.97;;;24.00;57.60;;;;;;5003858;28;20026;-69
2022/07/19 07:42:10;;;;;;;3.23;2.43;;;24.30;57.10;;;;;;5003811;28;20274;-69
2022/07/19 07:44:36;;;;;;;3.63;1.73;;;24.40;57.50;;;;;;5002096;28;20037;-69
2022/07/19 07:47:02;;;;;;;4.30;2.13;;;24.60;56.60;;;;;;5003709;28;20042;-74
2022/07/19 07:49:30;;;;;;;3.85;1.73;;;24.60;55.60;;;;;;4986165;28;20305;-71
2022/07/19 07:51:55;;;;;;;3.25;2.30;;;24.80;56.50;;;;;;5003569;28;20025;-69
2022/07/19 07:54:21;;;;;;;6.97;2.72;;;24.90;55.80;;;;;;5002198;28;20019;-70
2022/07/19 07:56:47;;;;;;;3.10;2.03;;;24.90;57.10;;;;;;5003459;28;20049;-69
2022/07/19 07:59:13;;;;;;;5.22;1.92;;;24.90;55.80;;;;;;5001526;28;20041;-70
2022/07/19 08:01:39;;;;;;;3.53;1.93;;;25.00;56.10;;;;;;5003417;28;20125;-70
2022/07/19 08:04:05;;;;;;;3.17;2.22;;;25.20;54.30;;;;;;5002952;28;20045;-70
2022/07/19 08:06:31;;;;;;;2.57;1.70;;;25.30;53.80;;;;;;5002435;28;20037;-70
2022/07/19 08:08:57;;;;;;;2.90;1.70;;;25.40;53.90;;;;;;5003287;28;20293;-70
2022/07/19 08:11:23;;;;;;;5.47;2.45;;;25.50;54.80;;;;;;5003245;28;20029;-69
2022/07/19 08:13:48;;;;;;;3.95;2.08;;;25.50;53.50;;;;;;5000849;28;20030;-71
2022/07/19 08:16:16;;;;;;;2.75;1.95;;;25.60;52.80;;;;;;5003194;28;20032;-69
2022/07/19 08:18:42;;;;;;;5.13;2.10;;;25.70;54.00;;;;;;5002967;28;20493;-68
2022/07/19 08:21:08;;;;;;;4.18;1.77;;;25.80;53.10;;;;;;5002848;28;20034;-67
2022/07/19 08:23:34;;;;;;;5.93;2.33;;;25.90;53.00;;;;;;5001567;28;20026;-67
2022/07/19 08:26:00;;;;;;;2.72;2.03;;;25.90;52.80;;;;;;5002904;28;20033;-67
2022/07/19 08:28:25;;;;;;;4.83;2.03;;;26.00;53.20;;;;;;5002728;28;20034;-68
2022/07/19 08:30:51;;;;;;;5.05;1.90;;;26.10;51.90;;;;;;5002902;28;20262;-68
2022/07/19 08:33:18;;;;;;;6.63;2.50;;;26.20;51.50;;;;;;5002537;28;20222;-68
2022/07/19 08:35:44;;;;;;;3.58;2.33;;;26.30;51.70;;;;;;5001853;28;20221;-70
2022/07/19 08:38:10;;;;;;;5.05;2.45;;;26.40;52.40;;;;;;5001512;28;20022;-68
2022/07/19 08:40:39;;;;;;;4.75;2.15;;;26.50;51.40;;;;;;5002508;28;20089;-68
2022/07/19 08:43:05;;;;;;;3.08;2.10;;;26.50;51.50;;;;;;5000483;28;20102;-68
2022/07/19 08:45:30;;;;;;;5.85;2.15;;;26.60;51.50;;;;;;5014414;23;20052;-69
2022/07/19 08:47:57;;;;;;;5.47;2.10;;;26.70;51.20;;;;;;4997350;28;20101;-69
2022/07/19 08:50:25;;;;;;;7.15;2.80;;;26.70;52.00;;;;;;5001828;28;20041;-69
2022/07/19 08:52:51;;;;;;;4.40;2.22;;;26.80;51.60;;;;;;5002289;28;20022;-70
2022/07/19 08:55:16;;;;;;;6.05;2.50;;;26.90;53.00;;;;;;4990932;28;20098;-72
2022/07/19 08:57:57;;;;;;;4.78;3.10;;;26.90;51.40;;;;;;4984167;28;20257;-73
2022/07/19 09:00:31;;;;;;;3.03;2.03;;;27.00;50.60;;;;;;4984128;28;20313;-72
2022/07/19 09:03:04;;;;;;;3.28;2.30;;;27.10;50.60;;;;;;4967221;28;20030;-73
2022/07/19 09:05:30;;;;;;;4.22;2.22;;;27.20;50.20;;;;;;4967336;28;20030;-73
2022/07/19 09:08:10;;;;;;;;;;;27.30;49.30;;;;;;4983388;28;20086;-73
2022/07/19 09:11:13;;;;;;;6.00;2.13;;;27.40;49.00;;;;;;4983644;28;20264;-72
2022/07/19 09:13:30;;;;;;;3.95;1.80;;;27.50;49.10;;;;;;4970114;28;20033;-73
2022/07/19 09:15:56;;;;;;;5.43;2.13;;;27.70;48.50;;;;;;4966740;28;20026;-72
2022/07/19 09:18:28;;;;;;;4.88;2.45;;;27.80;48.70;;;;;;4982960;28;20030;-73
2022/07/19 09:20:59;;;;;;;2.53;2.08;;;27.80;49.10;;;;;;4983801;28;20310;-73
2022/07/19 09:23:25;;;;;;;2.90;1.73;;;27.90;49.50;;;;;;4967062;28;20023;-73
2022/07/19 09:26:03;;;;;;;5.05;2.75;;;27.90;47.90;;;;;;4966254;28;20022;-73
2022/07/19 09:28:32;;;;;;;4.68;2.38;;;28.10;47.10;;;;;;4983665;28;20093;-73
2022/07/19 09:30:58;;;;;;;5.18;2.20;;;28.10;47.60;;;;;;4982656;28;20023;-73
2022/07/19 09:33:26;;;;;;;5.95;2.65;;;28.20;46.20;;;;;;4982291;28;20057;-73
2022/07/19 09:36:12;;;;;;;4.00;1.98;;;28.30;45.70;;;;;;4982587;28;20019;-73
2022/07/19 09:38:42;;;;;;;3.33;2.00;;;28.40;46.10;;;;;;4983142;28;20098;-73
2022/07/19 09:41:13;;;;;;;3.83;1.95;;;28.50;46.10;;;;;;4973073;28;20027;-74
2022/07/19 09:44:05;;;;;;;5.68;1.85;;;28.50;45.70;;;;;;4973761;28;20045;-73
2022/07/19 09:46:37;;;;;;;4.00;2.00;;;28.70;44.50;;;;;;4983665;28;20050;-76
2022/07/19 09:49:09;;;;;;;2.80;1.60;;;28.80;44.60;;;;;;4970270;28;20114;-75
2022/07/19 09:51:40;;;;;;;3.45;1.70;;;28.90;44.40;;;;;;4986786;28;20015;-72
2022/07/19 09:54:07;;;;;;;4.18;2.05;;;29.10;44.40;;;;;;4979708;28;20022;-72
2022/07/19 09:56:34;;;;;;;6.55;2.10;;;29.20;44.20;;;;;;4978348;28;20026;-72
2022/07/19 09:59:00;;;;;;;1.80;1.50;;;29.30;43.50;;;;;;4970044;28;20026;-73
2022/07/19 10:01:26;;;;;;;2.97;2.00;;;29.30;42.40;;;;;;4986371;28;20061;-72
2022/07/19 10:03:54;;;;;;;3.40;1.75;;;29.40;41.80;;;;;;4985817;28;20027;-72
2022/07/19 10:06:20;;;;;;;4.20;2.13;;;29.50;41.60;;;;;;4985976;28;20109;-72
2022/07/19 10:08:46;;;;;;;2.55;1.58;;;29.60;41.60;;;;;;4986843;28;20321;-73
2022/07/19 10:11:12;;;;;;;4.10;1.80;;;29.60;41.10;;;;;;4985753;28;20325;-73
2022/07/19 10:13:38;;;;;;;5.90;2.10;;;29.70;40.10;;;;;;4986643;28;20022;-73
2022/07/19 10:16:04;;;;;;;2.78;1.73;;;29.80;40.20;;;;;;4985677;28;20089;-73
2022/07/19 10:18:32;;;;;;;;;;;29.80;40.40;;;;;;4954345;28;20077;-73
2022/07/19 10:21:00;;;;;;;2.95;1.70;;;29.90;41.10;;;;;;4985524;28;19906;-73
2022/07/19 10:23:27;;;;;;;5.82;2.10;;;30.10;40.60;;;;;;4967901;28;20040;-73
2022/07/19 10:25:53;;;;;;;3.83;1.90;;;30.20;40.20;;;;;;4986624;28;20277;-73
2022/07/19 10:28:37;;;;;;;4.90;2.60;;;30.20;39.50;;;;;;4985650;28;20026;-72
2022/07/19 10:31:31;;;;;;;3.65;1.85;;;30.30;40.30;;;;;;4969767;28;20050;-73
2022/07/19 10:34:11;;;;;;;4.82;2.20;;;30.50;40.50;;;;;;4984867;28;20401;-72
2022/07/19 10:36:39;;;;;;;3.58;1.80;;;30.60;39.90;;;;;;4985630;28;20022;-72
2022/07/19 10:39:26;;;;;;;3.55;1.95;;;30.70;39.60;;;;;;4985600;28;20027;-73
2022/07/19 10:42:13;;;;;;;4.60;2.42;;;30.80;40.00;;;;;;4986156;28;20022;-72
2022/07/19 10:44:57;;;;;;;5.20;2.03;;;30.90;38.70;;;;;;4985505;28;20037;-72
2022/07/19 10:47:32;;;;;;;2.92;1.52;;;31.00;40.10;;;;;;4986186;28;20302;-72
2022/07/19 10:50:05;;;;;;;6.15;1.80;;;31.10;40.20;;;;;;4986179;28;20098;-72
2022/07/19 10:52:35;;;;;;;6.07;1.95;;;31.10;38.50;;;;;;4969262;28;20086;-72
2022/07/19 10:55:17;;;;;;;3.75;2.08;;;31.10;38.90;;;;;;4985255;28;20121;-71
2022/07/19 10:57:53;;;;;;;5.95;2.55;;;31.10;39.00;;;;;;4985202;28;20389;-71
2022/07/19 11:00:32;;;;;;;2.63;1.95;;;31.20;38.60;;;;;;4985112;28;20372;-72
2022/07/19 11:03:30;;;;;;;8.65;2.83;;;31.20;39.00;;;;;;4969089;28;20058;-72
2022/07/19 11:06:01;;;;;;;5.45;1.90;;;31.30;39.20;;;;;;4974414;28;20034;-72
2022/07/19 11:08:33;;;;;;;3.00;1.65;;;31.40;38.10;;;;;;4984827;28;20034;-72
2022/07/19 11:11:14;;;;;;;2.55;1.80;;;31.50;37.80;;;;;;4985660;28;20217;-72
2022/07/19 11:13:45;;;;;;;3.75;1.88;;;31.50;38.00;;;;;;4935282;29;20026;-72
2022/07/19 11:16:11;;;;;;;5.38;2.00;;;31.60;38.50;;;;;;4965324;28;20050;-72
2022/07/19 11:18:37;;;;;;;4.85;2.00;;;31.60;38.20;;;;;;4966576;28;20035;-72
2022/07/19 11:21:05;;;;;;;3.85;2.10;;;31.70;37.70;;;;;;4966680;28;20034;-72
2022/07/19 11:23:34;;;;;;;4.10;1.90;;;31.80;37.60;;;;;;4965206;28;20031;-72
2022/07/19 11:26:14;;;;;;;2.88;1.70;;;31.90;37.80;;;;;;4966160;28;20046;-72
2022/07/19 11:28:41;;;;;;;3.85;2.20;;;32.00;38.40;;;;;;4966271;28;20031;-72
2022/07/19 11:31:25;;;;;;;2.92;1.95;;;32.10;38.60;;;;;;4965153;29;20035;-72
2022/07/19 11:33:56;;;;;;;2.72;2.03;;;32.10;38.80;;;;;;4965930;28;20023;-72
2022/07/19 11:36:22;;;;;;;3.97;1.98;;;32.20;37.10;;;;;;4964965;28;20089;-73
2022/07/19 11:39:02;;;;;;;5.45;2.42;;;32.20;38.10;;;;;;4983121;28;20038;-72
2022/07/19 11:41:31;;;;;;;3.40;1.80;;;32.40;38.30;;;;;;4984094;28;20073;-72
2022/07/19 11:44:03;;;;;;;3.28;1.90;;;32.50;39.10;;;;;;4983830;28;20086;-72
2022/07/19 11:46:37;;;;;;;4.32;2.28;;;32.60;39.10;;;;;;4984150;28;20027;-72
2022/07/19 11:49:04;;;;;;;5.20;3.08;;;32.60;40.10;;;;;;4984170;28;20022;-71
2022/07/19 11:51:30;;;;;;;5.20;2.55;;;32.70;37.80;;;;;;4984881;28;20213;-71
2022/07/19 11:53:57;;;;;;;6.88;2.25;;;32.80;38.40;;;;;;4984959;28;20030;-71
2022/07/19 11:56:25;;;;;;;6.38;3.03;;;32.90;38.00;;;;;;4984889;28;20050;-71
2022/07/19 11:58:53;;;;;;;5.30;2.22;;;33.00;39.00;;;;;;4984908;28;20031;-70
2022/07/19 12:01:27;;;;;;;5.10;2.17;;;33.10;41.20;;;;;;4968093;28;20029;-71
2022/07/19 12:04:12;;;;;;;5.93;2.58;;;33.20;41.40;;;;;;4984800;28;20027;-71
2022/07/19 12:06:50;;;;;;;2.92;2.08;;;33.30;36.80;;;;;;4984928;28;20218;-71
2022/07/19 12:09:18;;;;;;;3.75;2.20;;;33.30;37.00;;;;;;4984857;28;20026;-70
2022/07/19 12:11:46;;;;;;;3.17;1.90;;;33.40;37.10;;;;;;4984298;28;20027;-70
2022/07/19 12:14:26;;;;;;;2.92;1.90;;;33.60;36.00;;;;;;4983292;28;20326;-70
2022/07/19 12:17:16;;;;;;;6.75;2.40;;;33.70;37.00;;;;;;4983668;28;20045;-70
2022/07/19 12:19:53;;;;;;;4.13;2.33;;;33.90;36.70;;;;;;4968373;28;20018;-71
2022/07/19 12:22:39;;;;;;;3.40;2.00;;;34.10;37.30;;;;;;4984580;28;20027;-71
2022/07/19 12:25:08;;;;;;;6.10;2.20;;;34.30;38.80;;;;;;4984345;28;20030;-71
2022/07/19 12:27:35;;;;;;;4.75;2.47;;;34.30;34.80;;;;;;4984292;28;20035;-71
2022/07/19 12:30:04;;;;;;;2.88;2.03;;;34.30;35.80;;;;;;4967471;28;20031;-71
2022/07/19 12:32:38;;;;;;;4.57;2.10;;;34.50;37.70;;;;;;4984535;28;20026;-71
2022/07/19 12:35:09;;;;;;;5.45;2.33;;;34.50;34.80;;;;;;4984222;28;20222;-71
2022/07/19 12:37:40;;;;;;;3.80;2.13;;;34.60;35.30;;;;;;4984289;28;20090;-71
2022/07/19 12:40:19;;;;;;;3.17;1.80;;;34.70;36.00;;;;;;4983606;28;20050;-71
2022/07/19 12:42:50;;;;;;;2.35;1.98;;;34.90;34.80;;;;;;4983899;28;20022;-72
2022/07/19 12:45:22;;;;;;;7.53;2.10;;;35.00;37.90;;;;;;4983616;28;20049;-71
2022/07/19 12:47:49;;;;;;;2.30;1.92;;;35.10;34.60;;;;;;4983228;28;20318;-71
2022/07/19 12:50:30;;;;;;;4.18;2.15;;;35.20;34.30;;;;;;4984033;28;20050;-71
2022/07/19 12:52:59;;;;;;;2.67;2.17;;;35.40;37.10;;;;;;4983908;28;20023;-71
2022/07/19 12:55:27;;;;;;;4.57;2.50;;;35.50;35.30;;;;;;4982906;28;20030;-71